ADDS METAR Data INFO
IDs: Format: Raw Decoded Include TAF

Data at: 0352 UTC 18 Oct 2017

KRNM 180253Z 00000KT 10SM CLR 21/07 A2999 RMK AO2 SLP146 T02060067 53008 $
KRNM 180153Z 25005KT 10SM CLR 21/06 A2998 RMK AO2 SLP143 T02110061 $
KRNM 180053Z 31005KT 10SM CLR 27/07 A2997 RMK AO2 SLP137 T02670067 $
KRNM 172353Z 28007KT 10SM CLR 29/04 A2997 RMK AO2 SLP134 T02940039 10350 20289 55005 $
KRNM 172253Z 27011KT 10SM CLR 32/02 A2997 RMK AO2 SLP133 T03220022 $
KRNM 172153Z 30008KT 10SM CLR 35/M03 A2997 RMK AO2 SLP131 T03501028 $
KRNM 172053Z 28010KT 10SM CLR 34/M01 A2999 RMK AO2 SLP137 T03391011 58020 $
KRNM 171953Z 26009KT 10SM CLR 34/M01 A3001 RMK AO2 SLP146 T03441011 $
KRNM 171853Z 32008KT 10SM CLR 34/M01 A3003 RMK AO2 SLP154 T03391011
KRNM 171753Z VRB04KT 10SM CLR 33/M04 A3005 RMK AO2 SLP158 T03331039 10333 20111 50001
KRNM 171653Z 00000KT 10SM CLR 31/M02 A3006 RMK AO2 SLP165 T03061022
KRNM 171553Z 09003KT 10SM CLR 24/M01 A3006 RMK AO2 SLP166 T02441011
KRNM 171453Z 00000KT 10SM CLR 15/01 A3004 RMK AO2 SLP163 T01500011 53008
KRNM 171353Z AUTO 11004KT 10SM CLR 12/01 A3003 RMK AO2 SLP158 T01220006
KRNM 171253Z AUTO 00000KT 10SM CLR 12/01 A3002 RMK AO2 SLP154 T01220011
KRNM 171153Z AUTO 00000KT 10SM CLR 12/02 A3002 RMK AO2 SLP151 T01220017 10156 20122 56009
KRNM 171053Z AUTO 00000KT 10SM CLR 12/02 A3002 RMK AO2 SLP150 T01220017
KRNM 170953Z AUTO 00000KT 10SM CLR 13/01 A3004 RMK AO2 SLP153 T01280011
KRNM 170853Z AUTO 00000KT 10SM CLR 13/00 A3005 RMK AO2 SLP158 T01330000 57009
KRNM 170753Z AUTO 09004KT 10SM CLR 13/00 A3006 RMK AO2 SLP161 T01330000 403720100
KRNM 170653Z AUTO 00000KT 10SM CLR 15/M01 A3007 RMK AO2 SLP164 T01501011
KRNM 170553Z AUTO 00000KT 10SM CLR 15/M01 A3008 RMK AO2 SLP167 T01501006 10317 20144 51008
KRNM 170453Z AUTO 00000KT 10SM CLR 16/M03 A3007 RMK AO2 SLP167 T01611028
KRNM 170353Z AUTO 00000KT 10SM CLR 18/M01 A3006 RMK AO2 SLP166 T01781006
KRNM 170253Z 00000KT 10SM CLR 20/M03 A3005 RMK AO2 SLP166 T02001033 53014
KRNM 170153Z 11004KT 10SM CLR 24/M02 A3004 RMK AO2 SLP160 T02391022
KRNM 170053Z 27011KT 10SM CLR 28/M03 A3002 RMK AO2 PK WND 29028/0026 SLP152 T02781033
KRNM 162353Z 29012KT 10SM CLR 32/M01 A3001 RMK AO2 SLP147 T03171006 10372 20317 56008
KRNM 162253Z 29014KT 10SM CLR 35/M01 A3001 RMK AO2 SLP147 T03501011
KRNM 162153Z 29012KT 10SM CLR 37/00 A3001 RMK AO2 SLP146 T03670000
KRNM 162053Z 29013KT 10SM CLR 37/01 A3003 RMK AO2 SLP153 T03670006 58020
KRNM 161953Z 30009KT 10SM CLR 37/M02 A3006 RMK AO2 SLP163 T03671022
KRNM 161853Z 31008KT 10SM CLR 36/M06 A3009 RMK AO2 SLP170 T03611056
KRNM 161753Z 00000KT 10SM CLR 34/M07 A3010 RMK AO2 SLP175 T03441067 10344 20100 58002
KRNM 161653Z 00000KT 10SM CLR 31/M04 A3011 RMK AO2 SLP181 T03111039
KRNM 161553Z 00000KT 10SM CLR 24/M01 A3012 RMK AO2 SLP184 T02391011